KGYR/GYR METAR and TAF weather

Enter ICAO airport designator
Station Type Date Time Source
KGYR METAR 2021/07/28 20:47 UTC NOAA

KGYR 282047Z VRB04KT 10SM FEW070 SCT100 39/17 A2991 RMK TCU DSNT N


Station Type Date Time Source
KGYR Decoded METAR 2021/07/28 20:47 UTC NOAA

Goodyear Municipal, AZ, United States (KGYR) 33-25N 112-23W
Jul 28, 2021 - 04:47 PM EDT / 2021.07.28 2047 UTC
Wind: Variable at 5 MPH (4 KT):0
Visibility: 10 mile(s):0
Sky conditions: partly cloudy
Weather: Towering cumulus clouds observed
Temperature: 102 F (39 C)
Heat index: 103.8 F (39.9 C):1
Dew Point: 62 F (17 C)
Relative Humidity: 27%
Pressure (altimeter): 29.91 in. Hg (1012 hPa)
ob: KGYR 282047Z VRB04KT 10SM FEW070 SCT100 39/17 A2991 RMK TCU DSNT N
cycle: 21

Station Type Date Time Source
KGYR TAF UTC NOAA

Error!

Example: see airport list